Time;durP1;ratioP1;P1;durP2;ratioP2;P2;SDS_P1;SDS_P2;PMS_P1;PMS_P2;Temp;Humidity;BMP_temperature;BMP_pressure;BME280_temperature;BME280_humidity;BME280_pressure;Samples;Min_cycle;Max_cycle;Signal;HPM_P1;HPM_P2
2021/06/09 00:01:35;;;;;;;8.40;7.70;;;;;;;;;;5077155;28;20226;-84
2021/06/09 00:04:00;;;;;;;8.80;7.87;;;;;;;;;;5094737;28;20216;-84
2021/06/09 00:06:27;;;;;;;8.50;7.80;;;;;;;;;;5094797;28;20170;-83
2021/06/09 00:08:52;;;;;;;7.90;7.27;;;;;;;;;;5094977;28;20179;-83
2021/06/09 00:11:17;;;;;;;8.77;8.03;;;;;;;;;;5094863;28;20170;-84
2021/06/09 00:13:44;;;;;;;8.97;8.17;;;;;;;;;;5094671;28;20182;-84
2021/06/09 00:16:11;;;;;;;8.93;8.23;;;;;;;;;;5094816;28;20170;-83
2021/06/09 00:18:37;;;;;;;9.43;8.40;;;;;;;;;;5095099;28;20660;-83
2021/06/09 00:21:02;;;;;;;8.47;7.77;;;;;;;;;;5094748;28;20254;-83
2021/06/09 00:23:30;;;;;;;8.50;7.80;;;;;;;;;;5094443;28;20187;-83
2021/06/09 00:25:59;;;;;;;8.83;7.80;;;;;;;;;;5076597;28;20174;-82
2021/06/09 00:28:25;;;;;;;9.23;8.03;;;;;;;;;;5094296;28;20269;-82
2021/06/09 00:30:50;;;;;;;8.40;7.60;;;;;;;;;;5094331;28;20250;-83
2021/06/09 00:33:15;;;;;;;8.50;7.53;;;;;;;;;;5094459;28;20190;-82
2021/06/09 00:35:41;;;;;;;8.27;7.53;;;;;;;;;;5094194;28;20545;-83
2021/06/09 00:38:06;;;;;;;8.23;7.43;;;;;;;;;;5094494;28;20197;-83
2021/06/09 00:40:32;;;;;;;7.67;7.03;;;;;;;;;;5094216;28;20173;-83
2021/06/09 00:43:11;;;;;;;9.07;7.27;;;;;;;;;;5094432;28;20730;-83
2021/06/09 00:45:38;;;;;;;8.33;7.63;;;;;;;;;;5094512;28;20163;-83
2021/06/09 00:48:04;;;;;;;8.57;7.60;;;;;;;;;;5093780;28;20253;-83
2021/06/09 00:50:29;;;;;;;8.60;7.83;;;;;;;;;;5094310;28;20590;-83
2021/06/09 00:52:54;;;;;;;9.23;8.27;;;;;;;;;;5093931;28;20205;-83
2021/06/09 00:55:20;;;;;;;8.17;7.47;;;;;;;;;;5093800;28;20229;-83
2021/06/09 00:57:45;;;;;;;9.00;8.20;;;;;;;;;;5093912;28;20205;-83
2021/06/09 01:00:12;;;;;;;8.40;7.50;;;;;;;;;;5093902;28;20170;-82
2021/06/09 01:02:37;;;;;;;8.20;7.47;;;;;;;;;;5094606;28;20229;-82
2021/06/09 01:05:04;;;;;;;8.50;7.70;;;;;;;;;;5093882;28;20231;-83
2021/06/09 01:07:29;;;;;;;8.57;7.87;;;;;;;;;;5094007;28;20194;-83
2021/06/09 01:09:54;;;;;;;8.47;7.70;;;;;;;;;;5094141;28;20174;-82
2021/06/09 01:12:20;;;;;;;8.57;7.77;;;;;;;;;;5094469;28;20540;-82
2021/06/09 01:14:45;;;;;;;9.20;8.30;;;;;;;;;;5094342;28;20588;-82
2021/06/09 01:17:10;;;;;;;9.07;8.17;;;;;;;;;;5094280;28;20648;-82
2021/06/09 01:19:36;;;;;;;9.47;8.60;;;;;;;;;;5093726;28;20253;-82
2021/06/09 01:22:01;;;;;;;9.83;8.93;;;;;;;;;;5093960;28;20170;-82
2021/06/09 01:24:26;;;;;;;9.93;9.13;;;;;;;;;;5094516;28;20177;-83
2021/06/09 01:26:52;;;;;;;9.83;8.97;;;;;;;;;;5093902;28;20194;-83
2021/06/09 01:29:18;;;;;;;10.30;9.40;;;;;;;;;;5093552;28;20519;-83
2021/06/09 01:31:43;;;;;;;9.97;9.10;;;;;;;;;;5075885;28;20604;-83
2021/06/09 01:34:09;;;;;;;10.23;9.27;;;;;;;;;;5093818;28;20308;-83
2021/06/09 01:36:35;;;;;;;10.77;9.87;;;;;;;;;;5093605;28;20662;-83
2021/06/09 01:39:05;;;;;;;11.10;10.10;;;;;;;;;;5093490;28;20229;-83
2021/06/09 01:41:31;;;;;;;10.63;9.63;;;;;;;;;;5093467;28;20171;-83
2021/06/09 01:43:56;;;;;;;10.57;9.70;;;;;;;;;;5093525;28;20221;-83
2021/06/09 01:46:23;;;;;;;10.80;9.87;;;;;;;;;;5093735;28;20171;-82
2021/06/09 01:48:49;;;;;;;10.90;10.00;;;;;;;;;;5094319;28;20185;-82
2021/06/09 01:51:14;;;;;;;11.00;9.90;;;;;;;;;;5093468;28;20619;-82
2021/06/09 01:53:39;;;;;;;10.70;9.70;;;;;;;;;;5093866;28;20267;-82
2021/06/09 01:56:05;;;;;;;10.23;9.23;;;;;;;;;;5093423;28;20169;-82
2021/06/09 01:58:30;;;;;;;10.30;9.40;;;;;;;;;;5093341;28;20185;-83
2021/06/09 02:00:55;;;;;;;11.77;10.57;;;;;;;;;;5095209;28;20687;-83
2021/06/09 02:03:21;;;;;;;11.17;10.17;;;;;;;;;;5097209;28;20257;-83
2021/06/09 02:05:46;;;;;;;10.73;9.83;;;;;;;;;;5097379;28;20173;-83
2021/06/09 02:08:12;;;;;;;11.03;10.13;;;;;;;;;;5097042;28;20607;-83
2021/06/09 02:10:38;;;;;;;11.30;10.33;;;;;;;;;;5097539;28;20184;-83
2021/06/09 02:13:05;;;;;;;11.73;10.73;;;;;;;;;;5098084;28;20174;-82
2021/06/09 02:15:31;;;;;;;11.30;10.40;;;;;;;;;;5097145;28;20173;-84
2021/06/09 02:18:17;;;;;;;12.57;11.50;;;;;;;;;;5097208;28;20162;-83
2021/06/09 02:20:46;;;;;;;12.93;11.80;;;;;;;;;;5097112;28;20632;-83
2021/06/09 02:23:12;;;;;;;12.47;11.37;;;;;;;;;;5097510;28;20233;-82
2021/06/09 02:25:40;;;;;;;12.10;11.00;;;;;;;;;;5097400;28;20174;-83
2021/06/09 02:28:06;;;;;;;12.33;11.33;;;;;;;;;;5097011;28;20174;-82
2021/06/09 02:30:32;;;;;;;12.63;11.43;;;;;;;;;;5097256;28;20171;-82
2021/06/09 02:32:57;;;;;;;13.10;11.70;;;;;;;;;;5097103;28;20614;-83
2021/06/09 02:35:22;;;;;;;13.63;12.30;;;;;;;;;;5096865;28;20166;-82
2021/06/09 02:37:52;;;;;;;12.10;11.00;;;;;;;;;;5097089;28;20243;-82
2021/06/09 02:40:18;;;;;;;12.37;11.30;;;;;;;;;;5097017;28;20196;-83
2021/06/09 02:42:43;;;;;;;13.20;12.00;;;;;;;;;;5096762;28;20194;-82
2021/06/09 02:45:11;;;;;;;13.10;11.83;;;;;;;;;;5096848;28;20181;-82
2021/06/09 02:47:38;;;;;;;13.73;12.43;;;;;;;;;;5097419;28;20205;-82
2021/06/09 02:50:05;;;;;;;13.60;12.30;;;;;;;;;;5096830;28;20166;-82
2021/06/09 02:52:46;;;;;;;14.07;12.60;;;;;;;;;;5097060;28;20185;-83
2021/06/09 02:55:21;;;;;;;13.90;12.47;;;;;;;;;;5096127;28;20193;-83
2021/06/09 02:57:54;;;;;;;14.87;13.33;;;;;;;;;;5078590;28;20625;-83
2021/06/09 03:00:25;;;;;;;14.40;13.10;;;;;;;;;;5096834;28;20242;-83
2021/06/09 03:02:59;;;;;;;13.40;12.30;;;;;;;;;;5096002;28;20194;-83
2021/06/09 03:05:26;;;;;;;14.63;13.00;;;;;;;;;;5096233;28;20312;-81
2021/06/09 03:07:54;;;;;;;14.53;13.33;;;;;;;;;;5097030;28;20181;-81
2021/06/09 03:10:28;;;;;;;15.23;13.77;;;;;;;;;;5095928;28;20171;-82
2021/06/09 03:13:05;;;;;;;13.80;12.40;;;;;;;;;;5095944;28;20165;-82
2021/06/09 03:15:49;;;;;;;13.73;12.30;;;;;;;;;;5096299;28;20150;-83
2021/06/09 03:18:17;;;;;;;14.10;12.90;;;;;;;;;;5096355;28;20163;-82
2021/06/09 03:21:21;;;;;;;13.67;12.37;;;;;;;;;;5096213;28;20178;-84
2021/06/09 03:23:58;;;;;;;13.23;11.93;;;;;;;;;;5033609;28;20216;-84
2021/06/09 03:26:28;;;;;;;12.87;11.40;;;;;;;;;;5033753;28;20168;-84
2021/06/09 03:29:12;;;;;;;12.77;11.70;;;;;;;;;;5069141;28;20183;-84
2021/06/09 03:31:41;;;;;;;12.23;11.20;;;;;;;;;;5077593;28;20174;-85
2021/06/09 03:34:12;;;;;;;12.43;11.23;;;;;;;;;;5095435;28;20174;-83
2021/06/09 03:36:39;;;;;;;12.43;11.33;;;;;;;;;;5095452;28;20186;-83
2021/06/09 03:39:05;;;;;;;12.27;11.07;;;;;;;;;;5095398;28;20604;-83
2021/06/09 03:41:36;;;;;;;12.50;11.30;;;;;;;;;;5095230;28;20613;-83
2021/06/09 03:44:02;;;;;;;12.47;11.40;;;;;;;;;;5095789;28;20508;-84
2021/06/09 03:46:28;;;;;;;12.60;11.37;;;;;;;;;;5095088;28;20613;-84
2021/06/09 03:48:55;;;;;;;13.40;12.10;;;;;;;;;;5077577;28;20235;-84
2021/06/09 03:51:22;;;;;;;13.67;12.27;;;;;;;;;;5095328;28;20224;-83
2021/06/09 03:53:48;;;;;;;13.27;12.17;;;;;;;;;;5094916;28;20653;-84
2021/06/09 03:56:15;;;;;;;12.13;11.23;;;;;;;;;;5095235;28;20618;-84
2021/06/09 03:58:41;;;;;;;11.93;10.93;;;;;;;;;;5094932;28;20573;-83
2021/06/09 04:01:06;;;;;;;13.13;11.90;;;;;;;;;;5095032;28;20218;-84
2021/06/09 04:03:32;;;;;;;12.23;11.20;;;;;;;;;;5095218;28;20201;-84
2021/06/09 04:05:58;;;;;;;13.30;11.07;;;;;;;;;;5095005;28;20166;-84
2021/06/09 04:08:24;;;;;;;12.17;11.17;;;;;;;;;;5095210;28;20167;-84
2021/06/09 04:10:50;;;;;;;12.00;10.90;;;;;;;;;;5094684;28;20542;-84
2021/06/09 04:13:16;;;;;;;11.40;10.50;;;;;;;;;;5094959;28;20174;-84
2021/06/09 04:15:43;;;;;;;11.02;10.13;;;;;;;;;;5095422;28;20171;-85
2021/06/09 04:18:09;;;;;;;10.57;9.65;;;;;;;;;;5094869;28;20166;-85
2021/06/09 04:20:36;;;;;;;11.05;10.13;;;;;;;;;;5094551;28;20601;-85
2021/06/09 04:23:01;;;;;;;10.63;9.73;;;;;;;;;;5093565;28;20195;-85
2021/06/09 04:25:27;;;;;;;9.73;9.13;;;;;;;;;;5095013;28;20528;-85
2021/06/09 04:27:53;;;;;;;8.90;8.30;;;;;;;;;;5094403;28;20525;-85
2021/06/09 04:30:19;;;;;;;9.05;8.35;;;;;;;;;;5094571;28;20227;-85
2021/06/09 04:32:49;;;;;;;8.98;8.38;;;;;;;;;;5094329;28;20174;-85
2021/06/09 04:35:15;;;;;;;9.00;8.32;;;;;;;;;;5095085;28;20170;-85
2021/06/09 04:37:40;;;;;;;8.65;8.05;;;;;;;;;;5094505;28;20200;-85
2021/06/09 04:40:06;;;;;;;8.10;7.40;;;;;;;;;;5094542;28;20175;-85
2021/06/09 04:42:31;;;;;;;8.75;7.60;;;;;;;;;;5094085;28;20197;-85
2021/06/09 04:44:56;;;;;;;8.32;7.63;;;;;;;;;;5094460;28;20605;-85
2021/06/09 04:47:27;;;;;;;7.82;7.20;;;;;;;;;;5094881;28;20193;-85
2021/06/09 04:49:52;;;;;;;7.57;6.95;;;;;;;;;;5094367;28;20215;-85
2021/06/09 04:52:18;;;;;;;8.25;7.32;;;;;;;;;;5094012;28;20712;-85
2021/06/09 04:54:43;;;;;;;7.47;6.90;;;;;;;;;;5094039;28;20198;-85
2021/06/09 04:57:08;;;;;;;8.10;7.50;;;;;;;;;;5094229;28;20628;-85
2021/06/09 04:59:34;;;;;;;8.10;7.40;;;;;;;;;;5094510;28;20177;-85
2021/06/09 05:01:59;;;;;;;7.68;6.97;;;;;;;;;;5094382;28;20248;-86
2021/06/09 05:04:24;;;;;;;7.18;6.63;;;;;;;;;;5094440;28;20196;-86
2021/06/09 05:06:50;;;;;;;7.50;6.93;;;;;;;;;;5093857;28;20206;-86
2021/06/09 05:09:15;;;;;;;7.28;6.32;;;;;;;;;;5093862;28;20218;-86
2021/06/09 05:11:49;;;;;;;7.43;6.70;;;;;;;;;;5094144;28;20173;-86
2021/06/09 05:14:34;;;;;;;8.00;6.78;;;;;;;;;;5094388;28;20676;-85
2021/06/09 05:17:01;;;;;;;6.75;6.25;;;;;;;;;;5093286;28;20189;-86
2021/06/09 05:19:27;;;;;;;6.50;6.10;;;;;;;;;;5094245;28;20486;-86
2021/06/09 05:21:59;;;;;;;6.45;5.95;;;;;;;;;;5093914;28;20570;-86
2021/06/09 05:24:25;;;;;;;6.97;6.43;;;;;;;;;;5093982;28;20150;-85
2021/06/09 05:26:51;;;;;;;7.50;6.88;;;;;;;;;;5093597;28;20173;-82
2021/06/09 05:29:17;;;;;;;6.78;6.15;;;;;;;;;;5094378;28;20223;-83
2021/06/09 05:31:43;;;;;;;7.07;6.55;;;;;;;;;;5093407;28;20616;-83
2021/06/09 05:34:09;;;;;;;6.68;6.28;;;;;;;;;;5094234;28;20166;-83
2021/06/09 05:36:35;;;;;;;6.97;6.22;;;;;;;;;;5097648;28;20281;-83
2021/06/09 05:39:00;;;;;;;8.10;6.88;;;;;;;;;;5097906;28;20161;-83
2021/06/09 05:41:27;;;;;;;7.28;6.57;;;;;;;;;;5098129;28;20166;-83
2021/06/09 05:43:52;;;;;;;7.05;6.53;;;;;;;;;;5098099;28;20162;-83
2021/06/09 05:46:18;;;;;;;7.55;6.82;;;;;;;;;;5098045;28;20170;-83
2021/06/09 05:48:44;;;;;;;7.13;6.55;;;;;;;;;;5098279;28;20252;-84
2021/06/09 05:51:10;;;;;;;7.00;6.50;;;;;;;;;;5097963;28;20181;-83
2021/06/09 05:53:35;;;;;;;7.25;6.65;;;;;;;;;;5097475;28;20664;-84
2021/06/09 05:56:01;;;;;;;6.70;6.20;;;;;;;;;;5097294;28;20244;-83
2021/06/09 05:58:26;;;;;;;7.03;6.40;;;;;;;;;;5097786;28;20612;-83
2021/06/09 06:00:52;;;;;;;7.00;6.55;;;;;;;;;;5097214;28;20225;-83
2021/06/09 06:03:19;;;;;;;7.07;6.57;;;;;;;;;;5097228;28;20188;-83
2021/06/09 06:05:45;;;;;;;7.40;6.75;;;;;;;;;;5097678;28;20177;-83
2021/06/09 06:08:10;;;;;;;6.68;6.28;;;;;;;;;;5097662;28;20691;-82
2021/06/09 06:10:36;;;;;;;7.35;6.57;;;;;;;;;;5097597;28;20220;-82
2021/06/09 06:13:02;;;;;;;7.03;6.53;;;;;;;;;;5097478;28;20197;-83
2021/06/09 06:15:28;;;;;;;7.63;6.95;;;;;;;;;;5097276;28;20197;-83
2021/06/09 06:17:53;;;;;;;6.70;6.30;;;;;;;;;;5096920;28;20202;-83
2021/06/09 06:20:20;;;;;;;7.30;6.63;;;;;;;;;;5097132;28;20620;-83
2021/06/09 06:22:45;;;;;;;7.15;6.65;;;;;;;;;;5097055;28;20173;-84
2021/06/09 06:25:17;;;;;;;7.78;6.93;;;;;;;;;;5097233;28;20162;-83
2021/06/09 06:27:46;;;;;;;6.70;6.07;;;;;;;;;;5096863;28;20621;-83
2021/06/09 06:30:12;;;;;;;6.70;6.20;;;;;;;;;;5096664;28;20166;-83
2021/06/09 06:32:38;;;;;;;7.03;6.47;;;;;;;;;;5096663;28;20216;-83
2021/06/09 06:35:04;;;;;;;6.50;6.00;;;;;;;;;;5096766;28;20166;-84
2021/06/09 06:37:30;;;;;;;6.55;6.10;;;;;;;;;;5096429;28;20169;-83
2021/06/09 06:39:55;;;;;;;6.57;6.03;;;;;;;;;;5096992;28;20170;-83
2021/06/09 06:42:21;;;;;;;6.90;6.18;;;;;;;;;;5096332;28;20193;-83
2021/06/09 06:44:46;;;;;;;6.50;5.70;;;;;;;;;;5096606;28;20165;-83
2021/06/09 06:47:14;;;;;;;5.85;5.55;;;;;;;;;;5095698;28;20314;-83
2021/06/09 06:49:42;;;;;;;6.60;5.68;;;;;;;;;;5096339;28;20276;-83
2021/06/09 06:52:07;;;;;;;6.95;5.20;;;;;;;;;;5096222;28;20681;-83
2021/06/09 06:54:33;;;;;;;5.80;5.40;;;;;;;;;;5096452;28;20270;-83
2021/06/09 06:56:58;;;;;;;5.80;5.30;;;;;;;;;;5096620;28;20168;-84
2021/06/09 06:59:24;;;;;;;6.10;5.60;;;;;;;;;;5096025;28;20522;-84
2021/06/09 07:01:50;;;;;;;6.70;6.10;;;;;;;;;;5096177;28;20218;-84
2021/06/09 07:04:16;;;;;;;5.82;5.43;;;;;;;;;;5095954;28;20166;-84
2021/06/09 07:06:42;;;;;;;5.95;5.55;;;;;;;;;;5078131;28;20547;-83
2021/06/09 07:09:08;;;;;;;5.35;5.05;;;;;;;;;;5095802;28;20177;-84
2021/06/09 07:11:33;;;;;;;5.60;5.20;;;;;;;;;;5096029;28;20170;-84
2021/06/09 07:13:59;;;;;;;5.40;5.03;;;;;;;;;;5096363;28;20679;-84
2021/06/09 07:16:28;;;;;;;5.88;5.28;;;;;;;;;;5095834;28;20222;-84
2021/06/09 07:18:53;;;;;;;5.75;5.30;;;;;;;;;;5095924;28;20162;-84
2021/06/09 07:21:22;;;;;;;5.30;4.90;;;;;;;;;;5096004;28;20294;-84
2021/06/09 07:23:48;;;;;;;5.50;5.00;;;;;;;;;;5095807;28;20162;-84
2021/06/09 07:26:14;;;;;;;5.45;4.75;;;;;;;;;;5095911;28;20635;-83
2021/06/09 07:28:41;;;;;;;5.53;5.07;;;;;;;;;;5096539;28;20191;-83
2021/06/09 07:31:07;;;;;;;6.22;5.28;;;;;;;;;;5095860;28;20632;-83
2021/06/09 07:33:32;;;;;;;5.53;5.13;;;;;;;;;;5095266;28;20200;-83
2021/06/09 07:36:01;;;;;;;5.47;5.07;;;;;;;;;;5095583;28;20165;-83
2021/06/09 07:38:29;;;;;;;5.35;4.93;;;;;;;;;;5095271;28;20188;-83
2021/06/09 07:40:59;;;;;;;7.13;5.32;;;;;;;;;;5095487;28;20257;-83
2021/06/09 07:43:30;;;;;;;4.72;4.43;;;;;;;;;;5100334;28;20177;-84
2021/06/09 07:45:56;;;;;;;4.95;4.63;;;;;;;;;;5107837;28;20237;-84
2021/06/09 07:48:23;;;;;;;5.53;4.97;;;;;;;;;;5100779;28;20526;-81
2021/06/09 07:50:51;;;;;;;5.07;4.68;;;;;;;;;;5098706;28;20632;-82
2021/06/09 07:53:17;;;;;;;4.85;4.57;;;;;;;;;;5095028;28;20220;-82
2021/06/09 07:55:43;;;;;;;4.57;4.28;;;;;;;;;;5094869;28;20177;-82
2021/06/09 07:58:09;;;;;;;3.92;3.70;;;;;;;;;;5095328;28;20169;-83
2021/06/09 08:00:34;;;;;;;5.93;4.25;;;;;;;;;;5104872;28;20259;-83
2021/06/09 08:03:00;;;;;;;4.72;3.78;;;;;;;;;;5115523;28;20173;-83
2021/06/09 08:05:26;;;;;;;4.18;3.95;;;;;;;;;;5115628;28;20191;-83
2021/06/09 08:07:52;;;;;;;5.25;4.28;;;;;;;;;;5115469;28;20180;-82
2021/06/09 08:10:18;;;;;;;4.82;4.47;;;;;;;;;;5100578;28;20247;-83
2021/06/09 08:12:44;;;;;;;5.20;4.90;;;;;;;;;;5109573;27;20213;-83
2021/06/09 08:15:11;;;;;;;5.28;4.78;;;;;;;;;;5135127;27;20687;-82
2021/06/09 08:17:39;;;;;;;7.40;4.50;;;;;;;;;;5124433;27;20170;-83
2021/06/09 08:20:07;;;;;;;5.40;4.97;;;;;;;;;;5114977;28;20207;-83
2021/06/09 08:22:33;;;;;;;7.25;5.63;;;;;;;;;;5114687;28;20182;-85
2021/06/09 08:24:58;;;;;;;5.15;4.75;;;;;;;;;;5114527;28;20222;-85
2021/06/09 08:27:23;;;;;;;5.45;5.03;;;;;;;;;;5114798;28;20509;-85
2021/06/09 08:29:48;;;;;;;5.68;5.18;;;;;;;;;;5114857;28;20176;-85
2021/06/09 08:32:14;;;;;;;5.20;4.90;;;;;;;;;;5114895;28;20198;-84
2021/06/09 08:34:39;;;;;;;5.15;4.75;;;;;;;;;;5114572;28;20172;-85
2021/06/09 08:37:04;;;;;;;5.97;5.30;;;;;;;;;;5114743;28;20162;-85
2021/06/09 08:39:30;;;;;;;7.10;6.07;;;;;;;;;;5114628;28;20248;-85
2021/06/09 08:41:55;;;;;;;5.65;5.18;;;;;;;;;;5115049;28;20260;-84
2021/06/09 08:44:21;;;;;;;5.50;5.03;;;;;;;;;;5096370;28;20565;-85
2021/06/09 08:46:47;;;;;;;5.90;5.47;;;;;;;;;;5114967;28;20252;-85
2021/06/09 08:49:15;;;;;;;5.60;5.10;;;;;;;;;;5114672;28;20201;-85
2021/06/09 08:51:41;;;;;;;5.30;4.90;;;;;;;;;;5114321;28;20256;-84
2021/06/09 08:54:08;;;;;;;5.00;4.60;;;;;;;;;;5114520;28;20277;-86
2021/06/09 08:56:36;;;;;;;5.30;4.90;;;;;;;;;;5114788;28;20612;-86
2021/06/09 08:59:01;;;;;;;6.00;5.50;;;;;;;;;;5114188;28;20517;-85
2021/06/09 09:01:27;;;;;;;5.47;5.07;;;;;;;;;;5113874;28;20324;-86
2021/06/09 09:03:53;;;;;;;5.72;5.32;;;;;;;;;;5114093;28;20234;-85
2021/06/09 09:06:20;;;;;;;6.25;5.65;;;;;;;;;;5114277;28;20612;-86
2021/06/09 09:08:45;;;;;;;6.82;6.32;;;;;;;;;;5105023;28;20174;-86
2021/06/09 09:11:11;;;;;;;7.82;6.22;;;;;;;;;;5097888;28;20279;-85
2021/06/09 09:13:36;;;;;;;6.90;6.30;;;;;;;;;;5114239;28;20198;-86
2021/06/09 09:16:01;;;;;;;6.30;5.88;;;;;;;;;;5104558;28;20222;-86
2021/06/09 09:18:44;;;;;;;6.47;5.88;;;;;;;;;;5093986;28;20170;-86
2021/06/09 09:21:15;;;;;;;10.52;5.60;;;;;;;;;;5093598;28;20525;-86
2021/06/09 09:23:50;;;;;;;6.85;5.30;;;;;;;;;;5077500;28;20625;-86
2021/06/09 09:26:24;;;;;;;6.05;5.53;;;;;;;;;;5114149;28;20173;-86
2021/06/09 09:28:49;;;;;;;6.13;5.60;;;;;;;;;;5114287;28;20636;-85
2021/06/09 09:31:16;;;;;;;6.35;5.75;;;;;;;;;;5113774;28;20181;-85
2021/06/09 09:33:42;;;;;;;5.55;5.15;;;;;;;;;;5114142;28;20206;-84
2021/06/09 09:36:29;;;;;;;7.88;6.07;;;;;;;;;;5113900;28;20182;-84
2021/06/09 09:38:58;;;;;;;6.45;5.85;;;;;;;;;;5114145;28;20162;-85
2021/06/09 09:41:31;;;;;;;5.88;5.47;;;;;;;;;;5093320;28;20600;-84
2021/06/09 09:44:02;;;;;;;5.57;5.05;;;;;;;;;;5075639;28;20185;-84
2021/06/09 09:46:33;;;;;;;5.97;5.45;;;;;;;;;;5093543;28;20651;-86
2021/06/09 09:48:59;;;;;;;6.10;5.50;;;;;;;;;;5093884;28;20246;-85
2021/06/09 09:51:26;;;;;;;5.30;4.90;;;;;;;;;;5093566;28;20681;-85
2021/06/09 09:53:55;;;;;;;5.30;4.90;;;;;;;;;;5093461;28;20687;-86
2021/06/09 09:56:22;;;;;;;6.18;5.22;;;;;;;;;;5093235;28;20162;-85
2021/06/09 09:58:53;;;;;;;6.20;5.13;;;;;;;;;;5093458;28;20692;-85
2021/06/09 10:01:23;;;;;;;5.28;4.97;;;;;;;;;;5093277;28;20672;-84
2021/06/09 10:03:49;;;;;;;6.32;5.82;;;;;;;;;;5093705;28;20638;-85
2021/06/09 10:06:18;;;;;;;6.18;5.68;;;;;;;;;;5093312;28;20178;-84
2021/06/09 10:08:44;;;;;;;5.70;5.30;;;;;;;;;;5093559;28;20628;-85
2021/06/09 10:11:12;;;;;;;6.10;5.60;;;;;;;;;;5093104;28;20249;-85
2021/06/09 10:13:37;;;;;;;6.32;5.72;;;;;;;;;;5093424;28;20682;-84
2021/06/09 10:16:03;;;;;;;6.28;5.78;;;;;;;;;;5093059;28;20171;-85
2021/06/09 10:18:28;;;;;;;8.38;5.75;;;;;;;;;;5075365;28;20179;-85
2021/06/09 10:20:55;;;;;;;5.80;5.40;;;;;;;;;;5093542;28;20179;-84
2021/06/09 10:23:37;;;;;;;7.22;5.70;;;;;;;;;;5097154;28;20173;-85
2021/06/09 10:26:13;;;;;;;5.60;5.20;;;;;;;;;;5096825;28;20162;-84
2021/06/09 10:28:57;;;;;;;5.72;5.30;;;;;;;;;;5097130;28;20158;-85
2021/06/09 10:31:23;;;;;;;5.70;5.30;;;;;;;;;;5096864;28;20166;-85
2021/06/09 10:33:49;;;;;;;5.85;5.45;;;;;;;;;;5096710;28;20255;-85
2021/06/09 10:36:15;;;;;;;6.97;5.93;;;;;;;;;;5061763;28;20183;-85
2021/06/09 10:38:40;;;;;;;6.72;5.60;;;;;;;;;;5096415;28;20205;-85
2021/06/09 10:41:06;;;;;;;5.75;5.35;;;;;;;;;;5096368;28;20182;-85
2021/06/09 10:43:32;;;;;;;5.80;5.38;;;;;;;;;;5096754;28;20178;-85
2021/06/09 10:45:58;;;;;;;6.03;5.53;;;;;;;;;;5096174;28;20166;-85
2021/06/09 10:48:24;;;;;;;5.70;5.30;;;;;;;;;;5096422;28;20166;-85
2021/06/09 10:50:52;;;;;;;6.22;5.65;;;;;;;;;;5096776;28;20170;-85
2021/06/09 10:53:18;;;;;;;6.93;6.00;;;;;;;;;;5078303;28;20291;-86
2021/06/09 10:55:43;;;;;;;6.32;5.85;;;;;;;;;;5096293;28;20214;-85
2021/06/09 10:58:08;;;;;;;6.63;6.13;;;;;;;;;;5096353;28;20516;-85
2021/06/09 11:00:34;;;;;;;7.10;6.05;;;;;;;;;;5100368;28;20572;-86
2021/06/09 11:03:00;;;;;;;6.85;5.78;;;;;;;;;;5098341;28;20178;-86
2021/06/09 11:05:26;;;;;;;6.32;5.78;;;;;;;;;;5116683;28;20248;-86
2021/06/09 11:07:52;;;;;;;6.30;5.70;;;;;;;;;;5116722;28;20519;-86
2021/06/09 11:10:30;;;;;;;6.43;5.88;;;;;;;;;;5116282;28;20218;-85
2021/06/09 11:12:55;;;;;;;6.50;5.85;;;;;;;;;;5116155;28;20201;-86
2021/06/09 11:15:22;;;;;;;6.22;5.75;;;;;;;;;;5116321;28;20174;-86
2021/06/09 11:17:48;;;;;;;7.30;6.60;;;;;;;;;;5112582;28;20238;-85
2021/06/09 11:20:18;;;;;;;6.00;5.53;;;;;;;;;;5098577;28;20221;-85
2021/06/09 11:23:04;;;;;;;6.20;5.60;;;;;;;;;;5109839;28;20174;-85
2021/06/09 11:25:29;;;;;;;6.15;5.65;;;;;;;;;;5095628;28;21578;-85
2021/06/09 11:27:56;;;;;;;7.13;6.45;;;;;;;;;;5103913;28;20608;-86
2021/06/09 11:30:25;;;;;;;5.85;5.35;;;;;;;;;;5103881;28;20226;-85
2021/06/09 11:32:51;;;;;;;6.00;5.40;;;;;;;;;;5105812;28;20198;-85
2021/06/09 11:35:22;;;;;;;6.63;6.07;;;;;;;;;;5091693;28;20265;-86
2021/06/09 11:38:06;;;;;;;6.30;5.80;;;;;;;;;;5107261;28;20253;-86
2021/06/09 11:40:49;;;;;;;6.05;5.55;;;;;;;;;;5112392;28;20596;-85
2021/06/09 11:43:26;;;;;;;6.85;5.68;;;;;;;;;;5115706;28;20174;-86
2021/06/09 11:45:59;;;;;;;6.72;5.60;;;;;;;;;;5114861;27;20186;-85
2021/06/09 11:48:25;;;;;;;6.20;5.60;;;;;;;;;;5117781;27;20177;-85
2021/06/09 11:50:52;;;;;;;5.82;5.32;;;;;;;;;;5136011;27;20193;-85
2021/06/09 11:53:34;;;;;;;5.80;5.30;;;;;;;;;;5086091;28;20598;-85
2021/06/09 11:56:18;;;;;;;5.00;4.65;;;;;;;;;;5097497;28;20272;-85
2021/06/09 11:58:45;;;;;;;5.63;5.13;;;;;;;;;;5115965;28;20170;-85
2021/06/09 12:01:12;;;;;;;5.35;4.90;;;;;;;;;;5077988;28;20238;-85
2021/06/09 12:03:39;;;;;;;5.28;4.82;;;;;;;;;;5055590;28;20168;-84
2021/06/09 12:06:11;;;;;;;6.50;5.47;;;;;;;;;;5053521;28;20206;-85
2021/06/09 12:08:37;;;;;;;6.32;5.03;;;;;;;;;;5052841;28;20568;-85
2021/06/09 12:11:02;;;;;;;5.32;4.93;;;;;;;;;;5062176;28;20226;-85
2021/06/09 12:13:28;;;;;;;5.32;4.93;;;;;;;;;;5052656;28;20192;-86
2021/06/09 12:16:03;;;;;;;5.88;5.25;;;;;;;;;;5052804;28;20172;-85
2021/06/09 12:18:29;;;;;;;5.93;5.43;;;;;;;;;;5065709;28;20182;-85
2021/06/09 12:21:03;;;;;;;5.70;5.25;;;;;;;;;;5074760;28;20175;-86
2021/06/09 12:23:28;;;;;;;5.85;5.13;;;;;;;;;;5074227;28;20194;-85
2021/06/09 12:25:53;;;;;;;5.82;4.90;;;;;;;;;;5074204;28;20610;-86
2021/06/09 12:28:20;;;;;;;6.35;5.65;;;;;;;;;;5068660;28;20208;-87
2021/06/09 12:30:51;;;;;;;5.68;5.18;;;;;;;;;;5063681;28;20191;-86
2021/06/09 12:33:17;;;;;;;6.88;5.25;;;;;;;;;;5063874;28;20203;-86
2021/06/09 12:35:42;;;;;;;6.07;5.43;;;;;;;;;;5064653;28;20179;-86
2021/06/09 12:38:08;;;;;;;5.50;5.00;;;;;;;;;;5064165;28;20175;-87
2021/06/09 12:40:42;;;;;;;5.70;5.30;;;;;;;;;;5062932;28;20219;-85
2021/06/09 12:43:10;;;;;;;6.75;6.18;;;;;;;;;;5060338;28;20156;-85
2021/06/09 12:45:39;;;;;;;5.65;5.25;;;;;;;;;;5061320;28;20176;-86
2021/06/09 12:48:05;;;;;;;5.82;5.32;;;;;;;;;;5061932;28;20191;-85
2021/06/09 12:50:39;;;;;;;5.68;4.95;;;;;;;;;;5067520;28;20179;-85
2021/06/09 12:53:10;;;;;;;5.40;5.03;;;;;;;;;;5073820;28;20288;-86
2021/06/09 12:55:37;;;;;;;8.73;6.00;;;;;;;;;;5073768;28;20195;-86
2021/06/09 12:58:04;;;;;;;6.55;5.90;;;;;;;;;;5073427;28;20170;-85
2021/06/09 13:00:32;;;;;;;5.70;5.30;;;;;;;;;;5077904;28;20189;-85
2021/06/09 13:03:10;;;;;;;5.45;4.95;;;;;;;;;;5114670;28;20636;-85
2021/06/09 13:05:36;;;;;;;5.20;4.90;;;;;;;;;;5114457;28;20635;-85
2021/06/09 13:08:08;;;;;;;5.63;5.13;;;;;;;;;;5096179;28;20170;-85
2021/06/09 13:10:33;;;;;;;5.97;4.97;;;;;;;;;;5108200;28;20166;-85
2021/06/09 13:12:59;;;;;;;5.68;4.97;;;;;;;;;;5114173;28;20205;-85
2021/06/09 13:15:24;;;;;;;6.15;5.55;;;;;;;;;;5114213;28;20200;-85
2021/06/09 13:17:49;;;;;;;5.88;5.28;;;;;;;;;;5113906;28;20168;-85
2021/06/09 13:20:15;;;;;;;5.18;4.78;;;;;;;;;;5113351;28;20175;-85
2021/06/09 13:22:44;;;;;;;5.65;5.18;;;;;;;;;;5113936;28;20180;-85
2021/06/09 13:25:10;;;;;;;5.60;5.10;;;;;;;;;;5105025;28;20253;-85
2021/06/09 13:27:35;;;;;;;5.28;4.78;;;;;;;;;;5102053;28;20166;-85
2021/06/09 13:30:00;;;;;;;5.47;5.07;;;;;;;;;;5104997;28;20174;-85
2021/06/09 13:32:27;;;;;;;5.38;4.97;;;;;;;;;;5103673;28;20557;-85
2021/06/09 13:34:56;;;;;;;6.03;5.53;;;;;;;;;;5107392;28;20177;-85
2021/06/09 13:37:22;;;;;;;5.70;5.20;;;;;;;;;;5093900;28;20178;-85
2021/06/09 13:39:51;;;;;;;5.97;5.47;;;;;;;;;;5093451;28;20166;-85
2021/06/09 13:42:24;;;;;;;6.20;5.70;;;;;;;;;;5106703;28;20178;-85
2021/06/09 13:44:50;;;;;;;6.10;5.60;;;;;;;;;;5113641;28;20162;-85
2021/06/09 13:47:19;;;;;;;6.22;5.68;;;;;;;;;;5113874;28;20177;-85
2021/06/09 13:49:52;;;;;;;6.75;6.13;;;;;;;;;;5114066;28;20703;-85
2021/06/09 13:52:25;;;;;;;6.25;5.80;;;;;;;;;;5113659;28;20644;-85
2021/06/09 13:54:52;;;;;;;5.68;5.28;;;;;;;;;;5107978;28;20271;-85
2021/06/09 13:57:23;;;;;;;6.32;5.82;;;;;;;;;;5111587;28;20642;-85
2021/06/09 13:59:51;;;;;;;6.07;5.57;;;;;;;;;;5107391;28;20193;-86
2021/06/09 14:02:30;;;;;;;6.35;5.85;;;;;;;;;;5113021;28;20229;-86
2021/06/09 14:05:13;;;;;;;6.18;5.68;;;;;;;;;;5107472;28;20159;-85
2021/06/09 14:07:39;;;;;;;6.60;6.10;;;;;;;;;;5099900;28;20175;-86
2021/06/09 14:10:06;;;;;;;6.28;5.78;;;;;;;;;;5111884;28;20185;-85
2021/06/09 14:12:39;;;;;;;6.43;5.93;;;;;;;;;;5117551;28;20238;-85
2021/06/09 14:15:12;;;;;;;6.38;5.78;;;;;;;;;;5117769;28;20197;-85
2021/06/09 14:17:38;;;;;;;6.63;6.00;;;;;;;;;;5116525;28;20236;-85
2021/06/09 14:20:06;;;;;;;6.28;5.78;;;;;;;;;;5105922;28;20167;-85
2021/06/09 14:22:32;;;;;;;6.10;5.60;;;;;;;;;;5105819;28;20616;-85
2021/06/09 14:25:24;;;;;;;6.25;5.63;;;;;;;;;;5107987;28;20178;-85
2021/06/09 14:28:00;;;;;;;6.05;5.53;;;;;;;;;;5085551;28;20179;-85
2021/06/09 14:30:28;;;;;;;6.75;6.13;;;;;;;;;;5105889;28;20192;-85
2021/06/09 14:32:59;;;;;;;7.35;6.28;;;;;;;;;;5108825;28;20209;-85
2021/06/09 14:35:26;;;;;;;7.65;6.25;;;;;;;;;;5096705;28;20256;-86
2021/06/09 14:37:51;;;;;;;7.00;6.28;;;;;;;;;;5096593;28;20173;-86
2021/06/09 14:40:17;;;;;;;6.35;5.78;;;;;;;;;;5096693;28;20524;-86
2021/06/09 14:42:44;;;;;;;6.20;5.60;;;;;;;;;;5096441;28;20211;-85